createdAt,value
2022-09-10T00:00:04.840Z,99480.88
2022-09-10T00:02:34.745Z,99477.34
2022-09-10T00:05:04.972Z,99482.16
2022-09-10T00:07:54.832Z,99479.44
2022-09-10T00:10:26.397Z,99475.63
2022-09-10T00:12:56.911Z,99477.94
2022-09-10T00:15:26.945Z,99475.84
2022-09-10T00:17:57.308Z,99474.59
2022-09-10T00:20:27.283Z,99470.63
2022-09-10T00:22:58.456Z,99464.16
2022-09-10T00:25:32.164Z,99429.50
2022-09-10T00:28:02.221Z,99465.44
2022-09-10T00:30:32.033Z,99464.19
2022-09-10T00:33:03.143Z,99461.47
2022-09-10T00:35:33.864Z,99462.94
2022-09-10T00:38:05.435Z,99472.94
2022-09-10T00:40:35.698Z,99464.19
2022-09-10T00:43:12.803Z,99472.50
2022-09-10T00:45:45.238Z,99475.47
2022-09-10T00:48:19.468Z,99469.19
2022-09-10T00:50:51.849Z,99466.03
2022-09-10T00:53:27.660Z,99459.78
2022-09-10T00:56:05.263Z,99457.50
2022-09-10T00:58:36.499Z,99459.78
2022-09-10T01:01:07.711Z,99444.13
2022-09-10T01:03:39.932Z,99442.44
2022-09-10T01:06:10.676Z,99433.88
2022-09-10T01:08:42.068Z,99435.75
2022-09-10T01:11:34.853Z,99452.88
2022-09-10T01:14:20.596Z,99456.03
2022-09-10T01:17:03.470Z,99458.94
2022-09-10T01:20:05.747Z,99457.25
2022-09-10T01:22:55.225Z,99446.81
2022-09-10T01:25:40.569Z,99444.53
2022-09-10T01:28:18.600Z,99441.13
2022-09-10T01:30:53.172Z,99438.47
2022-09-10T01:33:30.525Z,99438.47
2022-09-10T01:36:04.581Z,99437.66
2022-09-10T01:38:38.725Z,99440.53
2022-09-10T01:41:10.763Z,99439.31
2022-09-10T01:43:42.297Z,99452.47
2022-09-10T01:46:28.339Z,99454.97
2022-09-10T01:49:11.313Z,99462.06
2022-09-10T01:51:56.713Z,99465.13
2022-09-10T01:54:41.024Z,99461.56
2022-09-10T01:57:15.657Z,99467.03
2022-09-10T01:59:53.755Z,99462.88
2022-09-10T02:02:30.095Z,99463.50
2022-09-10T02:05:02.603Z,99466.50
2022-09-10T02:07:34.965Z,99460.00
2022-09-10T02:10:07.198Z,99452.50
2022-09-10T02:12:40.078Z,99468.34
2022-09-10T02:15:12.820Z,99461.06
2022-09-10T02:17:44.093Z,99471.25
2022-09-10T02:20:14.956Z,99478.50
2022-09-10T02:22:51.749Z,99473.88
2022-09-10T02:25:21.530Z,99470.72
2022-09-10T02:27:51.339Z,99475.97
2022-09-10T02:30:24.838Z,99472.16
2022-09-10T02:32:54.664Z,99470.09
2022-09-10T02:35:24.502Z,99468.84
2022-09-10T02:37:54.463Z,99459.72
2022-09-10T02:40:24.311Z,99459.97
2022-09-10T02:42:55.623Z,99460.16
2022-09-10T02:45:26.917Z,99466.59
2022-09-10T02:47:56.744Z,99458.50
2022-09-10T02:50:26.642Z,99458.13
2022-09-10T02:52:57.618Z,99457.25
2022-09-10T02:55:27.524Z,99440.72
2022-09-10T02:57:58.371Z,99454.53
2022-09-10T03:00:31.595Z,99454.88
2022-09-10T03:03:03.274Z,99469.06
2022-09-10T03:05:33.532Z,99461.81
2022-09-10T03:08:04.188Z,99463.06
2022-09-10T03:10:34.250Z,99469.91
2022-09-10T03:13:04.185Z,99462.78
2022-09-10T03:15:36.021Z,99461.97
2022-09-10T03:18:06.811Z,99451.97
2022-09-10T03:20:37.339Z,99443.28
2022-09-10T03:23:07.807Z,99443.06
2022-09-10T03:25:37.768Z,99455.44
2022-09-10T03:28:07.659Z,99458.06
2022-09-10T03:30:40.255Z,99455.16
2022-09-10T03:33:11.878Z,99457.28
2022-09-10T03:35:41.832Z,99462.88
2022-09-10T03:38:11.648Z,99465.19
2022-09-10T03:40:41.977Z,99455.78
2022-09-10T03:43:14.012Z,99469.03
2022-09-10T03:45:45.552Z,99470.13
2022-09-10T03:48:15.418Z,99468.22
2022-09-10T03:50:46.042Z,99475.88
2022-09-10T03:53:18.045Z,99478.03
2022-09-10T03:55:51.893Z,99470.69
2022-09-10T03:58:21.868Z,99471.56
2022-09-10T04:00:53.063Z,99470.47
2022-09-10T04:03:23.071Z,99477.78
2022-09-10T04:05:52.975Z,99481.19
2022-09-10T04:08:23.293Z,99486.16
2022-09-10T04:10:53.093Z,99486.59
2022-09-10T04:13:23.125Z,99486.00
2022-09-10T04:15:56.096Z,99469.28
2022-09-10T04:18:27.451Z,99467.47
2022-09-10T04:20:57.387Z,99473.03
2022-09-10T04:23:27.507Z,99470.06
2022-09-10T04:25:57.577Z,99465.66
2022-09-10T04:28:27.526Z,99460.53
2022-09-10T04:30:59.740Z,99470.75
2022-09-10T04:33:29.559Z,99478.44
2022-09-10T04:36:00.978Z,99490.19
2022-09-10T04:38:31.247Z,99483.25
2022-09-10T04:41:01.704Z,99476.44
2022-09-10T04:43:32.797Z,99472.06
2022-09-10T04:46:04.136Z,99474.44
2022-09-10T04:48:34.485Z,99477.00
2022-09-10T04:51:16.173Z,99487.88
2022-09-10T04:53:47.473Z,99485.81
2022-09-10T04:56:18.445Z,99475.91
2022-09-10T04:58:48.471Z,99483.09
2022-09-10T05:01:19.882Z,99479.06
2022-09-10T05:03:49.648Z,99482.84
2022-09-10T05:06:20.361Z,99483.09
2022-09-10T05:08:51.172Z,99474.75
2022-09-10T05:11:21.314Z,99480.88
2022-09-10T05:13:51.316Z,99488.78
2022-09-10T05:16:22.567Z,99487.44
2022-09-10T05:18:53.190Z,99482.13
2022-09-10T05:21:23.632Z,99473.50
2022-09-10T05:23:53.384Z,99460.22
2022-09-10T05:26:23.300Z,99467.47
2022-09-10T05:28:55.568Z,99460.16
2022-09-10T05:31:27.850Z,99464.00
2022-09-10T05:33:59.368Z,99468.88
2022-09-10T05:36:32.040Z,99467.22
2022-09-10T05:39:03.173Z,99469.94
2022-09-10T05:41:33.289Z,99473.72
2022-09-10T05:44:03.194Z,99466.66
2022-09-10T05:46:34.689Z,99471.47
2022-09-10T05:49:04.500Z,99473.50
2022-09-10T05:51:34.444Z,99460.78
2022-09-10T05:54:04.501Z,99465.78
2022-09-10T05:56:34.775Z,99462.47
2022-09-10T05:59:05.654Z,99465.00
2022-09-10T06:01:37.768Z,99462.94
2022-09-10T06:04:07.472Z,99463.13
2022-09-10T06:06:37.301Z,99460.22
2022-09-10T06:09:07.296Z,99462.94
2022-09-10T06:11:37.117Z,99469.63
2022-09-10T06:14:07.344Z,99465.22
2022-09-10T06:16:38.982Z,99465.41
2022-09-10T06:19:09.719Z,99473.78
2022-09-10T06:21:39.506Z,99468.94
2022-09-10T06:24:10.628Z,99464.56
2022-09-10T06:26:40.535Z,99466.63
2022-09-10T06:29:11.742Z,99477.50
2022-09-10T06:31:43.391Z,99484.56
2022-09-10T06:34:13.137Z,99480.75
2022-09-10T06:36:43.732Z,99467.81
2022-09-10T06:39:13.504Z,99475.75
2022-09-10T06:41:47.897Z,99479.31
2022-09-10T06:44:19.472Z,99479.72
2022-09-10T06:47:19.905Z,99482.81
2022-09-10T06:49:40.751Z,99474.84
2022-09-10T06:52:11.546Z,99465.78
2022-09-10T06:54:41.291Z,99463.47
2022-09-10T06:57:11.419Z,99467.66
2022-09-10T06:59:41.365Z,99466.41
2022-09-10T07:02:12.990Z,99470.28
2022-09-10T07:04:42.947Z,99478.78
2022-09-10T07:07:12.750Z,99457.88
2022-09-10T07:09:43.266Z,99468.06
2022-09-10T07:12:12.991Z,99463.72
2022-09-10T07:14:43.199Z,99477.50
2022-09-10T07:17:14.334Z,99477.28
2022-09-10T07:19:44.143Z,99480.78
2022-09-10T07:22:13.859Z,99475.72
2022-09-10T07:24:43.684Z,99476.72
2022-09-10T07:27:13.437Z,99473.06
2022-09-10T07:29:43.340Z,99472.09
2022-09-10T07:32:14.611Z,99468.88
2022-09-10T07:34:46.652Z,99461.88
2022-09-10T07:37:16.696Z,99468.50
2022-09-10T07:39:47.066Z,99461.78
2022-09-10T07:42:17.176Z,99444.56
2022-09-10T07:44:46.908Z,99445.31
2022-09-10T07:47:18.817Z,99450.25
2022-09-10T07:49:48.892Z,99452.75
2022-09-10T07:52:19.254Z,99467.06
2022-09-10T07:54:49.403Z,99441.84
2022-09-10T07:57:19.408Z,99466.44
2022-09-10T07:59:49.535Z,99460.56
2022-09-10T08:02:22.137Z,99462.16
2022-09-10T08:04:52.185Z,99461.63
2022-09-10T08:07:22.047Z,99468.34
2022-09-10T08:09:52.060Z,99466.28
2022-09-10T08:12:22.153Z,99451.13
2022-09-10T08:14:52.250Z,99457.22
2022-09-10T08:17:23.447Z,99457.59
2022-09-10T08:19:53.939Z,99450.06
2022-09-10T08:22:24.405Z,99447.22
2022-09-10T08:24:55.899Z,99445.84
2022-09-10T08:27:25.744Z,99444.44
2022-09-10T08:29:58.129Z,99449.81
2022-09-10T08:32:29.354Z,99443.38
2022-09-10T08:34:59.473Z,99448.94
2022-09-10T08:37:31.268Z,99439.94
2022-09-10T08:40:01.488Z,99439.06
2022-09-10T08:42:40.048Z,99433.25
2022-09-10T08:45:15.115Z,99423.53
2022-09-10T08:47:54.331Z,99425.59
2022-09-10T08:50:30.310Z,99421.47
2022-09-10T08:53:09.503Z,99422.34
2022-09-10T08:55:45.045Z,99434.78
2022-09-10T08:58:42.529Z,99455.84
2022-09-10T09:01:19.177Z,99444.91
2022-09-10T09:03:50.909Z,99420.78
2022-09-10T09:06:29.708Z,99411.41
2022-09-10T09:09:01.937Z,99416.50
2022-09-10T09:11:42.261Z,99421.50
2022-09-10T09:14:33.647Z,99417.09
2022-09-10T09:17:27.749Z,99402.25
2022-09-10T09:20:11.203Z,99404.16
2022-09-10T09:22:51.383Z,99405.56
2022-09-10T09:25:28.906Z,99389.06
2022-09-10T09:27:59.965Z,99370.38
2022-09-10T09:30:35.696Z,99369.44
2022-09-10T09:33:14.736Z,99365.50
2022-09-10T09:35:50.379Z,99373.00
2022-09-10T09:38:24.816Z,99358.38
2022-09-10T09:40:58.019Z,99366.59
2022-09-10T09:43:36.310Z,99341.84
2022-09-10T09:46:16.806Z,99347.03
2022-09-10T09:48:48.018Z,99351.44
2022-09-10T09:51:21.504Z,99352.75
2022-09-10T09:54:06.178Z,99352.66
2022-09-10T09:56:45.636Z,99347.53
2022-09-10T09:59:26.892Z,99338.31
2022-09-10T10:02:00.720Z,99344.75
2022-09-10T10:04:33.945Z,99329.28
2022-09-10T10:07:05.610Z,99325.41
2022-09-10T10:09:43.499Z,99332.13
2022-09-10T10:12:21.070Z,99319.03
2022-09-10T10:14:51.473Z,99320.63
2022-09-10T10:17:35.066Z,99307.09
2022-09-10T10:20:11.424Z,99304.19
2022-09-10T10:22:44.226Z,99303.63
2022-09-10T10:25:38.446Z,99295.97
2022-09-10T10:28:17.528Z,99292.22
2022-09-10T10:30:53.457Z,99285.69
2022-09-10T10:33:29.424Z,99278.59
2022-09-10T10:36:11.763Z,99279.19
2022-09-10T10:38:49.347Z,99276.19
2022-09-10T10:41:40.967Z,99263.25
2022-09-10T10:44:35.346Z,99255.47
2022-09-10T10:47:24.484Z,99255.31
2022-09-10T10:50:04.729Z,99254.13
2022-09-10T10:52:44.562Z,99248.66
2022-09-10T10:55:24.477Z,99244.50
2022-09-10T10:58:10.469Z,99244.63
2022-09-10T11:00:45.495Z,99227.94
2022-09-10T11:03:23.987Z,99240.97
2022-09-10T11:06:00.912Z,99230.06
2022-09-10T11:08:36.837Z,99221.03
2022-09-10T11:11:14.327Z,99196.63
2022-09-10T11:13:48.436Z,99199.69
2022-09-10T11:16:24.494Z,99220.56
2022-09-10T11:18:58.341Z,99209.19
2022-09-10T11:21:33.063Z,99206.75
2022-09-10T11:24:11.981Z,99203.38
2022-09-10T11:26:52.176Z,99203.72
2022-09-10T11:29:35.463Z,99206.19
2022-09-10T11:32:10.008Z,99195.19
2022-09-10T11:34:49.420Z,99186.34
2022-09-10T11:37:25.554Z,99186.97
2022-09-10T11:40:01.150Z,99187.88
2022-09-10T11:42:40.873Z,99187.53
2022-09-10T11:45:21.979Z,99181.94
2022-09-10T11:48:00.385Z,99182.41
2022-09-10T11:50:38.022Z,99172.00
2022-09-10T11:53:12.747Z,99168.72
2022-09-10T11:55:59.470Z,99152.84
2022-09-10T11:58:40.722Z,99143.06
2022-09-10T12:01:17.700Z,99142.22
2022-09-10T12:04:05.640Z,99141.63
2022-09-10T12:06:54.877Z,99136.03
2022-09-10T12:09:31.217Z,99140.00
2022-09-10T12:12:10.380Z,99136.31
2022-09-10T12:14:42.394Z,99135.53
2022-09-10T12:17:18.482Z,99123.44
2022-09-10T12:19:53.137Z,99114.34
2022-09-10T12:22:28.204Z,99114.81
2022-09-10T12:25:03.085Z,99112.69
2022-09-10T12:27:46.443Z,99113.56
2022-09-10T12:30:55.919Z,99115.13
2022-09-10T12:34:16.551Z,99106.22
2022-09-10T12:37:24.778Z,99104.84
2022-09-10T12:40:40.519Z,99096.97
2022-09-10T12:43:51.587Z,99095.38
2022-09-10T12:46:25.785Z,99097.06
2022-09-10T12:49:12.015Z,99093.16
2022-09-10T12:51:57.947Z,99096.72
2022-09-10T12:54:50.878Z,99084.56
2022-09-10T12:57:29.166Z,99081.63
2022-09-10T13:00:19.310Z,99081.25
2022-09-10T13:02:53.936Z,99070.38
2022-09-10T13:05:32.282Z,99064.91
2022-09-10T13:08:12.224Z,99076.97
2022-09-10T13:10:44.711Z,99067.41
2022-09-10T13:13:34.185Z,99058.56
2022-09-10T13:16:06.307Z,99047.06
2022-09-10T13:18:39.176Z,99044.56
2022-09-10T13:21:42.215Z,99034.13
2022-09-10T13:25:00.766Z,99040.09
2022-09-10T13:27:39.735Z,99034.19
2022-09-10T13:30:17.910Z,99025.41
2022-09-10T13:32:51.887Z,99018.47
2022-09-10T13:35:45.518Z,99019.06
2022-09-10T13:38:39.879Z,99024.78
2022-09-10T13:41:36.489Z,99030.25
2022-09-10T13:44:22.742Z,99033.09
2022-09-10T13:46:57.446Z,99032.28
2022-09-10T13:49:36.421Z,99036.63
2022-09-10T13:52:13.760Z,99027.34
2022-09-10T13:54:51.683Z,99031.16
2022-09-10T13:57:31.330Z,99023.19
2022-09-10T14:00:07.202Z,99008.53
2022-09-10T14:02:48.610Z,99024.06
2022-09-10T14:05:27.528Z,99030.63
2022-09-10T14:08:01.798Z,99022.88
2022-09-10T14:10:33.915Z,99003.41
2022-09-10T14:13:05.925Z,99017.66
2022-09-10T14:15:40.392Z,99019.72
2022-09-10T14:18:12.348Z,99019.91
2022-09-10T14:20:43.288Z,99023.16
2022-09-10T14:23:17.027Z,99005.59
2022-09-10T14:25:47.661Z,99020.69
2022-09-10T14:28:25.845Z,99016.00
2022-09-10T14:31:21.027Z,99022.56
2022-09-10T14:33:51.140Z,99021.19
2022-09-10T14:36:24.153Z,99017.94
2022-09-10T14:38:57.838Z,98995.41
2022-09-10T14:41:31.467Z,99006.25
2022-09-10T14:44:29.826Z,99016.00
2022-09-10T14:47:01.071Z,99001.38
2022-09-10T14:49:33.944Z,99004.09
2022-09-10T14:52:05.176Z,98997.28
2022-09-10T14:54:36.262Z,98986.28
2022-09-10T14:57:13.318Z,98982.28
2022-09-10T14:59:46.563Z,98985.78
2022-09-10T15:02:20.821Z,98993.59
2022-09-10T15:04:51.000Z,98996.16
2022-09-10T15:07:21.299Z,98996.44
2022-09-10T15:09:54.296Z,98992.06
2022-09-10T15:12:27.139Z,98986.91
2022-09-10T15:14:59.253Z,98980.28
2022-09-10T15:17:29.710Z,98980.34
2022-09-10T15:19:59.903Z,98975.50
2022-09-10T15:22:31.635Z,98980.38
2022-09-10T15:25:10.541Z,98973.28
2022-09-10T15:27:42.007Z,98980.09
2022-09-10T15:30:13.576Z,98984.69
2022-09-10T15:32:43.457Z,98985.72
2022-09-10T15:35:13.868Z,98987.59
2022-09-10T15:37:43.735Z,98981.25
2022-09-10T15:40:13.720Z,98984.94
2022-09-10T15:42:43.921Z,98988.25
2022-09-10T15:45:15.376Z,98986.00
2022-09-10T15:47:45.529Z,98989.91
2022-09-10T15:50:16.386Z,98988.13
2022-09-10T15:52:46.431Z,98992.16
2022-09-10T15:55:16.627Z,99001.69
2022-09-10T15:57:47.575Z,98999.22
2022-09-10T16:00:20.446Z,98995.41
2022-09-10T16:02:54.522Z,98987.13
2022-09-10T16:05:24.849Z,98993.59
2022-09-10T16:07:55.048Z,98989.72
2022-09-10T16:10:25.280Z,98992.97
2022-09-10T16:12:55.344Z,98995.13
2022-09-10T16:15:27.336Z,98982.41
2022-09-10T16:17:58.263Z,98986.97
2022-09-10T16:20:28.519Z,98992.69
2022-09-10T16:22:59.747Z,98983.69
2022-09-10T16:25:31.249Z,98986.97
2022-09-10T16:28:01.698Z,98983.41
2022-09-10T16:30:33.247Z,98993.78
2022-09-10T16:33:03.335Z,98989.06
2022-09-10T16:35:36.019Z,98950.44
2022-09-10T16:38:06.358Z,98981.28
2022-09-10T16:40:36.338Z,98991.91
2022-09-10T16:43:07.075Z,98982.88
2022-09-10T16:45:38.449Z,98992.94
2022-09-10T16:48:08.587Z,98992.59
2022-09-10T16:50:38.655Z,99000.28
2022-09-10T16:53:12.014Z,99001.59
2022-09-10T16:55:42.207Z,99001.22
2022-09-10T16:58:13.312Z,99013.56
2022-09-10T17:00:44.926Z,99009.25
2022-09-10T17:03:15.528Z,99015.97
2022-09-10T17:05:46.919Z,99010.97
2022-09-10T17:08:17.150Z,99022.38
2022-09-10T17:10:47.584Z,99018.28
2022-09-10T17:13:17.965Z,99033.00
2022-09-10T17:15:49.635Z,99029.34
2022-09-10T17:18:19.725Z,99030.38
2022-09-10T17:20:49.965Z,99033.00
2022-09-10T17:23:20.219Z,99029.19
2022-09-10T17:25:50.637Z,99027.78
2022-09-10T17:28:20.609Z,99031.00
2022-09-10T17:30:56.621Z,99029.03
2022-09-10T17:33:27.441Z,99031.16
2022-09-10T17:35:58.534Z,99027.88
2022-09-10T17:38:32.376Z,99035.81
2022-09-10T17:41:04.684Z,99049.72
2022-09-10T17:43:36.813Z,99050.22
2022-09-10T17:46:10.722Z,99032.47
2022-09-10T17:48:41.396Z,99050.34
2022-09-10T17:51:14.052Z,99054.44
2022-09-10T17:53:46.590Z,99055.81
2022-09-10T17:56:19.167Z,99055.50
2022-09-10T17:58:49.859Z,99057.63
2022-09-10T18:01:25.745Z,99047.22
2022-09-10T18:03:56.683Z,99061.94
2022-09-10T18:06:29.425Z,99058.88
2022-09-10T18:09:02.052Z,99062.34
2022-09-10T18:11:36.017Z,99049.28
2022-09-10T18:14:07.416Z,99057.94
2022-09-10T18:16:38.967Z,99068.25
2022-09-10T18:19:14.266Z,99070.63
2022-09-10T18:21:46.812Z,99071.47
2022-09-10T18:24:19.264Z,99071.97
2022-09-10T18:26:50.552Z,99066.25
2022-09-10T18:29:22.362Z,99065.09
2022-09-10T18:31:57.804Z,99071.28
2022-09-10T18:34:46.889Z,99053.00
2022-09-10T18:37:17.104Z,99062.16
2022-09-10T18:39:48.156Z,99056.34
2022-09-10T18:42:18.267Z,99059.00
2022-09-10T18:44:49.342Z,99059.81
2022-09-10T18:47:40.930Z,99062.53
2022-09-10T18:50:15.276Z,99070.47
2022-09-10T18:52:45.695Z,99078.09
2022-09-10T18:55:16.280Z,99069.53
2022-09-10T18:57:46.354Z,99074.19
2022-09-10T19:00:17.480Z,99077.66
2022-09-10T19:02:49.790Z,99077.28
2022-09-10T19:05:20.027Z,99082.03
2022-09-10T19:07:50.258Z,99080.97
2022-09-10T19:10:23.041Z,99069.94
2022-09-10T19:12:55.739Z,99066.16
2022-09-10T19:15:28.084Z,99065.81
2022-09-10T19:18:01.357Z,99063.56
2022-09-10T19:20:37.753Z,99071.03
2022-09-10T19:23:09.747Z,99061.44
2022-09-10T19:25:40.898Z,99060.13
2022-09-10T19:28:11.236Z,99065.81
2022-09-10T19:30:41.063Z,99056.78
2022-09-10T19:33:12.635Z,99061.06
2022-09-10T19:35:42.613Z,99053.97
2022-09-10T19:38:34.268Z,99067.63
2022-09-10T19:41:05.632Z,99071.97
2022-09-10T19:43:37.147Z,99052.06
2022-09-10T19:46:10.181Z,99063.22
2022-09-10T19:48:42.327Z,99061.56
2022-09-10T19:51:14.467Z,99071.88
2022-09-10T19:53:44.702Z,99067.25
2022-09-10T19:56:20.267Z,99004.44
2022-09-10T19:58:52.167Z,99068.09
2022-09-10T20:01:24.052Z,99063.09
2022-09-10T20:03:56.250Z,99065.47
2022-09-10T20:06:26.430Z,99071.75
2022-09-10T20:08:57.534Z,99045.28
2022-09-10T20:11:29.962Z,99085.84
2022-09-10T20:14:03.445Z,99082.53
2022-09-10T20:16:33.837Z,99093.44
2022-09-10T20:19:06.244Z,99094.38
2022-09-10T20:21:37.551Z,99099.03
2022-09-10T20:24:08.287Z,99108.88
2022-09-10T20:26:41.129Z,99108.03
2022-09-10T20:29:13.281Z,99118.81
2022-09-10T20:31:44.145Z,99116.91
2022-09-10T20:34:17.297Z,99116.91
2022-09-10T20:36:47.898Z,99129.72
2022-09-10T20:39:20.232Z,99119.88
2022-09-10T20:41:50.461Z,99128.91
2022-09-10T20:44:20.904Z,99121.41
2022-09-10T20:46:51.948Z,99136.63
2022-09-10T20:49:23.152Z,99127.34
2022-09-10T20:51:53.602Z,99134.09
2022-09-10T20:54:23.711Z,99136.22
2022-09-10T20:56:53.511Z,99142.75
2022-09-10T20:59:27.776Z,99153.19
2022-09-10T21:01:58.178Z,99156.38
2022-09-10T21:04:29.461Z,99164.28
2022-09-10T21:06:59.701Z,99164.03
2022-09-10T21:09:29.463Z,99151.84
2022-09-10T21:11:59.220Z,99151.47
2022-09-10T21:14:28.973Z,99158.13
2022-09-10T21:16:58.615Z,99154.91
2022-09-10T21:19:29.819Z,99156.69
2022-09-10T21:21:59.739Z,99166.28
2022-09-10T21:24:29.540Z,99156.81
2022-09-10T21:26:59.432Z,99156.44
2022-09-10T21:29:29.160Z,99167.59
2022-09-10T21:31:59.988Z,99167.69
2022-09-10T21:34:32.472Z,99169.50
2022-09-10T21:37:02.350Z,99164.97
2022-09-10T21:39:32.060Z,99174.59
2022-09-10T21:42:04.383Z,99172.06
2022-09-10T21:44:34.241Z,99174.66
2022-09-10T21:47:04.000Z,99175.94
2022-09-10T21:49:35.363Z,99181.25
2022-09-10T21:52:05.759Z,99174.97
2022-09-10T21:54:36.621Z,99173.09
2022-09-10T21:57:10.916Z,99173.75
2022-09-10T21:59:41.645Z,99175.66
2022-09-10T22:02:11.468Z,99179.53
2022-09-10T22:04:43.070Z,99176.44
2022-09-10T22:07:14.201Z,99178.09
2022-09-10T22:09:43.994Z,99176.38
2022-09-10T22:12:13.883Z,99178.06
2022-09-10T22:14:43.840Z,99174.72
2022-09-10T22:17:13.632Z,99178.06
2022-09-10T22:19:44.804Z,99184.31
2022-09-10T22:22:14.524Z,99194.75
2022-09-10T22:24:44.661Z,99193.94
2022-09-10T22:27:14.377Z,99195.38
2022-09-10T22:29:45.297Z,99197.63
2022-09-10T22:32:15.798Z,99194.53
2022-09-10T22:34:48.052Z,99192.03
2022-09-10T22:37:18.004Z,99194.41
2022-09-10T22:39:47.803Z,99192.72
2022-09-10T22:42:21.180Z,99187.28
2022-09-10T22:44:51.160Z,99193.56
2022-09-10T22:47:20.959Z,99200.06
2022-09-10T22:49:52.112Z,99200.91
2022-09-10T22:52:21.826Z,99207.03
2022-09-10T22:54:52.479Z,99202.88
2022-09-10T22:57:22.292Z,99204.53
2022-09-10T22:59:52.292Z,99207.09
2022-09-10T23:02:22.394Z,99210.53
2022-09-10T23:04:53.723Z,99199.25
2022-09-10T23:07:25.908Z,99201.38
2022-09-10T23:09:55.833Z,99196.31
2022-09-10T23:12:25.572Z,99199.16
2022-09-10T23:14:55.369Z,99201.53
2022-09-10T23:17:25.306Z,99204.25
2022-09-10T23:19:56.454Z,99205.47
2022-09-10T23:22:26.255Z,99202.13
2022-09-10T23:24:56.593Z,99200.53
2022-09-10T23:27:26.385Z,99204.53
2022-09-10T23:29:56.618Z,99204.53
2022-09-10T23:32:26.396Z,99191.97
2022-09-10T23:34:57.527Z,99205.22
2022-09-10T23:37:27.379Z,99205.59
2022-09-10T23:39:57.125Z,99201.06
2022-09-10T23:42:27.474Z,99203.56
2022-09-10T23:44:57.266Z,99201.88
2022-09-10T23:47:27.015Z,99204.78
2022-09-10T23:49:58.244Z,99204.63
2022-09-10T23:52:27.974Z,99208.53
2022-09-10T23:54:57.772Z,99203.94
2022-09-10T23:57:27.521Z,99199.78
2022-09-10T23:59:57.284Z,99200.03
